Time;durP1;ratioP1;P1;durP2;ratioP2;P2;SDS_P1;SDS_P2;PMS_P1;PMS_P2;Temp;Humidity;BMP_temperature;BMP_pressure;BME280_temperature;BME280_humidity;BME280_pressure;Samples;Min_cycle;Max_cycle;Signal;HPM_P1;HPM_P2
2022/04/16 00:01:31;;;;;;;7.10;6.37;;;;;;;15.14;42.74;94477.28;5054733;28;20424;-77
2022/04/16 00:03:57;;;;;;;6.00;5.50;;;;;;;15.75;41.77;94478.75;5060216;28;20489;-77
2022/04/16 00:06:22;;;;;;;7.07;5.83;;;;;;;15.84;41.39;94478.41;5062009;28;20190;-77
2022/04/16 00:08:47;;;;;;;8.70;5.83;;;;;;;15.78;41.47;94478.31;5053470;28;20167;-77
2022/04/16 00:11:13;;;;;;;6.10;5.50;;;;;;;16.07;40.67;94473.09;5052425;28;20747;-77
2022/04/16 00:13:40;;;;;;;6.23;5.63;;;;;;;15.50;41.77;94476.31;5065274;28;20182;-78
2022/04/16 00:17:09;;;;;;;8.27;6.13;;;;;;;15.81;41.20;94461.19;5054178;28;20175;-77
2022/04/16 00:20:10;;;;;;;6.60;5.40;;;;;;;15.27;41.12;94468.38;5061988;28;20496;-77
2022/04/16 00:22:35;;;;;;;9.50;6.67;;;;;;;15.58;41.89;94467.28;5065914;28;20797;-77
2022/04/16 00:25:01;;;;;;;13.53;6.20;;;;;;;15.57;41.90;94460.38;5055676;28;20433;-77
2022/04/16 00:27:27;;;;;;;7.97;7.07;;;;;;;15.50;42.08;94468.41;5060197;28;20277;-77
2022/04/16 00:29:52;;;;;;;9.63;5.70;;;;;;;15.56;42.00;94461.41;5050512;28;20258;-78
2022/04/16 00:32:19;;;;;;;6.63;6.03;;;;;;;15.58;42.27;94462.78;5050144;28;20274;-77
2022/04/16 00:34:45;;;;;;;6.70;6.10;;;;;;;15.79;41.73;94458.78;5062636;28;20202;-77
2022/04/16 00:37:10;;;;;;;7.47;6.50;;;;;;;15.78;41.41;94457.19;5050401;28;21005;-77
2022/04/16 00:39:36;;;;;;;6.10;5.30;;;;;;;15.46;42.73;94466.44;5053389;28;20172;-78
2022/04/16 00:42:01;;;;;;;8.57;6.30;;;;;;;15.45;42.15;94460.38;5059075;28;20171;-77
2022/04/16 00:44:27;;;;;;;6.13;5.57;;;;;;;15.47;42.34;94470.69;5058361;28;20175;-78
2022/04/16 00:46:52;;;;;;;10.77;6.53;;;;;;;15.43;42.95;94465.88;5066579;28;20175;-77
2022/04/16 00:49:18;;;;;;;8.63;6.30;;;;;;;15.69;42.26;94458.53;5053938;28;20721;-77
2022/04/16 00:51:45;;;;;;;7.27;5.37;;;;;;;15.46;42.52;94469.09;5054456;28;20186;-77
2022/04/16 00:54:11;;;;;;;6.60;5.50;;;;;;;15.61;42.00;94450.97;5062087;28;20171;-77
2022/04/16 00:56:38;;;;;;;5.63;5.03;;;;;;;15.69;41.73;94453.28;5065496;28;20490;-78
2022/04/16 00:59:07;;;;;;;5.90;5.37;;;;;;;15.48;42.08;94461.75;5054474;28;20218;-77
2022/04/16 01:01:32;;;;;;;6.17;5.30;;;;;;;15.32;42.49;94453.50;5081815;28;20429;-78
2022/04/16 01:03:59;;;;;;;9.27;5.40;;;;;;;15.67;42.06;94444.78;5074813;28;20450;-77
2022/04/16 01:06:36;;;;;;;9.63;6.00;;;;;;;15.48;42.58;94448.56;5077953;28;20175;-78
2022/04/16 01:09:01;;;;;;;6.53;5.90;;;;;;;15.36;42.36;94448.56;5060411;28;20408;-77
2022/04/16 01:11:27;;;;;;;7.70;5.97;;;;;;;15.52;42.28;94439.97;5063248;28;20421;-77
2022/04/16 01:13:53;;;;;;;7.90;6.00;;;;;;;15.30;42.40;94454.75;5067341;28;20201;-77
2022/04/16 01:19:52;;;;;;;6.03;5.43;;;;;;;15.21;43.05;94456.91;4989853;28;20174;-77
2022/04/16 01:22:32;;;;;;;7.57;5.53;;;;;;;15.32;43.10;94456.13;5056680;28;20958;-76
2022/04/16 01:24:59;;;;;;;6.47;5.60;;;;;;;15.47;42.34;94450.41;5056872;28;20536;-76
2022/04/16 01:27:35;;;;;;;7.37;6.33;;;;;;;15.66;41.71;94451.09;5068242;28;20414;-77
2022/04/16 01:30:05;;;;;;;11.60;6.47;;;;;;;15.52;42.14;94463.72;5063848;28;20472;-76
2022/04/16 01:32:34;;;;;;;6.13;5.63;;;;;;;15.41;42.38;94469.78;5063848;28;20501;-77
2022/04/16 01:35:19;;;;;;;7.17;5.23;;;;;;;14.95;42.72;94469.50;5060967;28;20448;-77
2022/04/16 01:41:15;;;;;;;7.70;6.60;;;;;;;14.21;44.66;94467.00;5044638;28;20421;-77
2022/04/16 01:43:41;;;;;;;6.70;5.17;;;;;;;14.49;44.77;94476.16;5039841;28;20437;-77
2022/04/16 01:46:16;;;;;;;6.40;5.50;;;;;;;14.64;43.34;94468.72;5043332;28;20414;-77
2022/04/16 01:49:28;;;;;;;6.33;5.73;;;;;;;14.68;44.38;94466.41;5062206;28;20250;-77
2022/04/16 01:52:01;;;;;;;6.50;5.23;;;;;;;14.81;43.91;94462.78;5053713;28;20432;-76
2022/04/16 01:54:27;;;;;;;6.80;5.80;;;;;;;14.93;42.60;94461.00;5061720;28;20450;-77
2022/04/16 01:56:52;;;;;;;6.23;5.73;;;;;;;14.91;42.65;94456.97;5060112;28;20474;-77
2022/04/16 01:59:37;;;;;;;5.57;4.87;;;;;;;14.92;42.59;94459.38;5057749;28;21233;-77
2022/04/16 02:02:04;;;;;;;10.70;4.90;;;;;;;14.74;42.95;94462.06;5062383;28;20262;-77
2022/04/16 02:04:31;;;;;;;4.93;4.53;;;;;;;14.59;43.87;94450.13;5050615;28;20422;-77
2022/04/16 02:06:57;;;;;;;20.47;7.33;;;;;;;14.57;43.83;94456.63;5054971;28;20221;-77
2022/04/16 02:09:22;;;;;;;7.17;5.83;;;;;;;14.54;42.92;94455.22;5052780;28;20436;-77
2022/04/16 02:11:48;;;;;;;10.43;5.93;;;;;;;14.77;43.57;94453.75;5057329;28;20182;-77
2022/04/16 02:14:13;;;;;;;9.30;7.17;;;;;;;14.80;43.10;94455.94;5055722;28;20195;-77
2022/04/16 02:16:38;;;;;;;6.23;5.63;;;;;;;14.35;44.60;94456.31;5055693;28;20226;-77
2022/04/16 02:19:04;;;;;;;11.90;6.10;;;;;;;14.42;44.39;94464.94;5062600;28;20203;-77
2022/04/16 02:21:32;;;;;;;8.13;5.50;;;;;;;14.28;43.90;94456.38;5061953;28;20266;-78
2022/04/16 02:23:58;;;;;;;10.73;5.60;;;;;;;14.12;45.13;94460.44;5045792;28;20176;-78
2022/04/16 02:26:25;;;;;;;6.40;5.40;;;;;;;14.21;44.52;94458.31;5058251;28;20480;-77
2022/04/16 02:28:51;;;;;;;6.37;5.77;;;;;;;14.29;43.84;94459.84;5065619;28;20523;-78
2022/04/16 02:31:16;;;;;;;5.67;5.17;;;;;;;14.32;44.35;94460.16;5054364;28;20406;-77
2022/04/16 02:33:42;;;;;;;6.13;5.57;;;;;;;14.45;43.04;94451.31;5058905;28;20175;-76
2022/04/16 02:36:08;;;;;;;5.97;5.37;;;;;;;14.45;43.42;94457.41;5057415;28;20185;-76
2022/04/16 02:38:34;;;;;;;8.27;7.00;;;;;;;13.88;44.92;94450.78;5062582;28;20265;-77
2022/04/16 02:41:03;;;;;;;6.00;5.33;;;;;;;14.01;44.92;94454.06;5054848;28;20464;-79
2022/04/16 02:43:34;;;;;;;7.83;5.70;;;;;;;14.53;42.71;94448.38;5047904;28;20482;-79
2022/04/16 02:48:53;;;;;;;7.83;6.10;;;;;;;14.73;42.36;94444.69;5049328;28;20433;-80
2022/04/16 02:58:20;;;;;;;7.13;5.20;;;;;;;14.72;42.91;94454.44;5029491;28;20438;-80
2022/04/16 03:10:23;;;;;;;5.83;5.30;;;;;;;14.62;43.37;94464.69;5064337;28;20377;-81
2022/04/16 03:12:51;;;;;;;9.70;6.27;;;;;;;14.31;43.36;94457.78;5048459;28;20452;-80
2022/04/16 03:18:05;;;;;;;11.00;6.00;;;;;;;14.78;42.74;94458.78;5046722;28;20496;-80
2022/04/16 03:20:30;;;;;;;11.10;7.00;;;;;;;14.76;43.10;94457.38;5062616;28;20402;-80
2022/04/16 03:22:59;;;;;;;11.20;6.97;;;;;;;14.29;43.53;94460.63;5046961;28;20425;-80
2022/04/16 03:25:27;;;;;;;8.27;6.87;;;;;;;14.49;42.66;94457.72;5047551;28;20191;-80
2022/04/16 03:27:53;;;;;;;9.63;5.27;;;;;;;14.28;43.16;94460.84;5046708;28;20402;-80
2022/04/16 03:30:19;;;;;;;13.10;5.77;;;;;;;14.31;43.46;94463.03;5063642;28;20469;-80
2022/04/16 03:32:47;;;;;;;5.50;5.03;;;;;;;14.40;42.54;94467.00;5065841;28;20175;-79
2022/04/16 03:35:13;;;;;;;8.77;5.93;;;;;;;14.23;43.73;94472.06;5050457;28;20214;-80
2022/04/16 03:37:38;;;;;;;5.37;4.77;;;;;;;14.66;42.78;94470.31;5065563;28;20568;-80
2022/04/16 03:40:05;;;;;;;8.53;6.10;;;;;;;14.48;42.98;94479.84;5050273;28;20197;-79
2022/04/16 03:42:33;;;;;;;6.60;5.43;;;;;;;14.40;43.28;94486.22;5050335;28;20179;-80
2022/04/16 03:45:02;;;;;;;6.27;5.70;;;;;;;14.31;43.77;94489.38;5065723;28;20402;-80
2022/04/16 03:47:28;;;;;;;11.43;7.07;;;;;;;14.30;44.29;94493.00;5066455;28;20445;-81
2022/04/16 03:49:54;;;;;;;12.97;7.87;;;;;;;14.38;44.43;94490.91;5049521;28;20513;-80
2022/04/16 03:52:20;;;;;;;11.63;6.97;;;;;;;14.13;45.23;94504.13;5064881;28;20210;-79
2022/04/16 04:00:13;;;;;;;6.23;5.50;;;;;;;14.44;43.85;94505.00;5050352;28;20464;-80
2022/04/16 04:02:39;;;;;;;10.77;6.23;;;;;;;14.55;43.44;94513.97;5049248;28;20413;-79
2022/04/16 04:05:06;;;;;;;7.70;5.17;;;;;;;14.18;43.83;94514.81;5050206;28;20233;-80
2022/04/16 04:07:32;;;;;;;5.87;5.37;;;;;;;14.16;43.75;94514.22;5065285;28;20175;-80
2022/04/16 04:09:57;;;;;;;5.10;4.60;;;;;;;14.27;43.34;94519.78;5050115;28;20417;-80
2022/04/16 04:12:23;;;;;;;12.17;4.73;;;;;;;14.62;42.87;94518.16;5065425;28;20422;-80
2022/04/16 04:14:49;;;;;;;5.33;4.70;;;;;;;14.46;43.39;94518.75;5064702;28;20238;-80
2022/04/16 04:17:15;;;;;;;6.97;5.20;;;;;;;14.53;42.69;94530.00;5048064;28;20453;-82
2022/04/16 04:19:44;;;;;;;9.33;5.10;;;;;;;14.58;43.46;94527.53;5049162;28;20172;-81
2022/04/16 04:22:11;;;;;;;6.23;5.57;;;;;;;14.64;43.35;94521.41;5068117;28;20197;-81
2022/04/16 04:24:38;;;;;;;11.17;5.53;;;;;;;14.63;42.78;94514.50;5068922;28;20418;-81
2022/04/16 04:27:04;;;;;;;15.33;5.80;;;;;;;14.72;43.26;94516.81;5068735;28;20430;-81
2022/04/16 04:29:30;;;;;;;7.40;5.40;;;;;;;14.84;43.01;94513.22;5068892;28;20498;-81
2022/04/16 04:31:57;;;;;;;7.57;5.70;;;;;;;14.89;42.29;94504.66;5053759;28;20438;-81
2022/04/16 04:34:39;;;;;;;;;;;;;;;;;;;;;
2022/04/16 04:37:06;;;;;;;9.20;4.70;;;;;;;15.20;41.16;94508.84;5052778;28;20209;-81
2022/04/16 04:39:31;;;;;;;6.27;5.67;;;;;;;15.25;41.59;94518.69;5067060;28;20429;-81
2022/04/16 04:41:58;;;;;;;11.30;6.40;;;;;;;14.62;42.52;94522.63;5070161;28;20466;-79
2022/04/16 04:44:36;;;;;;;9.40;6.10;;;;;;;14.54;43.03;94522.91;5070602;28;20170;-79
2022/04/16 04:47:03;;;;;;;8.50;6.17;;;;;;;15.06;41.51;94530.34;5071147;28;20408;-80
2022/04/16 04:49:31;;;;;;;6.60;6.00;;;;;;;15.00;41.58;94530.19;5070480;28;20412;-80
2022/04/16 04:52:35;;;;;;;13.13;6.93;;;;;;;14.97;42.29;94530.66;5072749;28;20429;-80
2022/04/16 04:55:20;;;;;;;9.93;7.97;;;;;;;15.27;41.26;94539.56;5066789;28;20959;-80
2022/04/16 04:57:54;;;;;;;8.63;7.73;;;;;;;15.36;41.33;94538.22;5071965;28;20486;-79
2022/04/16 05:01:12;;;;;;;8.77;7.20;;;;;;;15.67;41.01;94531.03;5071189;28;20421;-80
2022/04/16 05:09:38;;;;;;;11.83;7.47;;;;;;;15.98;40.93;94537.84;5001003;28;20416;-79
2022/04/16 05:12:05;;;;;;;22.03;9.07;;;;;;;16.06;41.12;94537.47;5054027;28;20413;-80
2022/04/16 05:14:43;;;;;;;12.27;8.70;;;;;;;16.19;40.92;94539.88;5089409;28;20419;-79
2022/04/16 05:17:48;;;;;;;13.93;9.07;;;;;;;16.12;41.05;94530.47;5082095;28;20478;-79
2022/04/16 05:23:44;;;;;;;11.47;8.90;;;;;;;16.74;39.82;94527.22;5039547;28;20433;-79
2022/04/16 05:26:10;;;;;;;12.83;9.57;;;;;;;16.84;39.64;94532.72;5048129;28;20847;-79
2022/04/16 05:28:37;;;;;;;14.90;10.80;;;;;;;15.93;41.97;94532.44;5080802;28;20162;-79
2022/04/16 05:31:04;;;;;;;12.73;9.87;;;;;;;15.91;42.07;94524.75;5087356;28;20428;-80
2022/04/16 05:36:14;;;;;;;12.53;9.97;;;;;;;16.46;41.19;94518.22;5081147;28;20469;-80
2022/04/16 05:38:39;;;;;;;17.70;10.17;;;;;;;16.66;40.88;94520.50;5062497;28;20466;-81
2022/04/16 05:41:05;;;;;;;14.47;11.07;;;;;;;17.06;39.88;94513.56;5052265;28;20175;-79
2022/04/16 05:43:30;;;;;;;12.37;9.43;;;;;;;17.41;38.81;94516.00;5066336;28;20197;-81
2022/04/16 05:45:56;;;;;;;14.10;10.80;;;;;;;17.22;38.53;94523.34;5083234;28;20173;-80
2022/04/16 05:48:21;;;;;;;15.80;10.20;;;;;;;17.30;38.83;94522.16;5086338;28;20231;-80
2022/04/16 05:50:47;;;;;;;14.40;10.00;;;;;;;17.51;36.96;94525.94;5070758;28;20170;-80
2022/04/16 05:53:14;;;;;;;13.33;9.10;;;;;;;17.55;36.84;94516.50;5066250;28;20621;-81
2022/04/16 05:55:43;;;;;;;13.30;9.03;;;;;;;17.41;37.23;94516.00;5066861;28;20175;-81
2022/04/16 05:58:09;;;;;;;15.20;9.20;;;;;;;17.69;35.94;94509.81;5065855;28;20457;-81
2022/04/16 06:00:36;;;;;;;16.13;7.63;;;;;;;17.56;35.59;94512.78;5066346;28;20476;-79
2022/04/16 06:03:03;;;;;;;7.70;5.80;;;;;;;17.42;34.26;94509.69;5065815;28;20652;-79
2022/04/16 06:05:31;;;;;;;7.13;6.00;;;;;;;17.75;34.00;94511.50;5067367;28;20416;-79
2022/04/16 06:07:56;;;;;;;10.03;6.97;;;;;;;18.11;32.61;94509.38;5067370;28;20468;-79
2022/04/16 06:10:21;;;;;;;11.60;6.27;;;;;;;17.49;31.56;94512.16;5066932;28;20417;-79
2022/04/16 06:12:47;;;;;;;10.90;5.43;;;;;;;17.62;31.72;94498.59;5065604;28;20174;-79
2022/04/16 06:15:12;;;;;;;9.20;5.30;;;;;;;17.84;31.43;94508.47;5066209;28;20178;-79
2022/04/16 06:17:38;;;;;;;8.13;5.43;;;;;;;18.58;30.36;94512.63;5067592;28;20198;-80
2022/04/16 06:20:04;;;;;;;7.20;4.77;;;;;;;17.85;31.45;94515.38;5066544;28;20178;-80
2022/04/16 06:22:30;;;;;;;14.50;5.47;;;;;;;18.13;31.67;94512.59;5065254;28;20167;-81
2022/04/16 06:24:56;;;;;;;12.80;5.70;;;;;;;18.24;30.97;94513.53;5067007;28;20404;-81
2022/04/16 06:27:22;;;;;;;13.73;5.83;;;;;;;17.95;31.62;94510.25;5066612;28;20232;-80
2022/04/16 06:29:48;;;;;;;13.30;6.90;;;;;;;18.24;31.16;94515.38;5065533;28;20206;-80
2022/04/16 06:32:13;;;;;;;11.63;5.23;;;;;;;18.27;31.47;94522.84;5067126;28;20428;-79
2022/04/16 06:34:39;;;;;;;15.63;5.60;;;;;;;17.63;32.21;94513.44;5065621;28;20242;-79
2022/04/16 06:37:04;;;;;;;6.20;4.70;;;;;;;18.26;31.33;94514.09;5079011;28;20205;-79
2022/04/16 06:39:30;;;;;;;8.37;5.77;;;;;;;17.97;31.62;94510.00;5066467;28;20166;-80
2022/04/16 06:41:56;;;;;;;7.00;4.93;;;;;;;18.11;32.10;94509.38;5070677;28;20202;-79
2022/04/16 06:44:21;;;;;;;9.43;5.40;;;;;;;18.49;31.23;94505.09;5066148;28;20269;-79
2022/04/16 06:46:46;;;;;;;7.13;5.47;;;;;;;18.40;31.14;94501.28;5066396;28;20189;-79
2022/04/16 06:49:12;;;;;;;9.90;5.17;;;;;;;18.63;30.66;94489.63;5065481;28;20169;-79
2022/04/16 06:51:38;;;;;;;6.33;5.00;;;;;;;19.13;30.07;94502.88;5066707;28;20171;-81
2022/04/16 06:54:03;;;;;;;15.30;7.47;;;;;;;19.03;30.67;94503.59;5065989;28;20224;-79
2022/04/16 06:56:28;;;;;;;13.63;6.87;;;;;;;19.00;30.98;94509.38;5062359;28;20581;-79
2022/04/16 06:58:54;;;;;;;11.33;5.60;;;;;;;18.61;31.90;94499.69;5044883;28;20197;-79
2022/04/16 07:01:19;;;;;;;18.33;6.37;;;;;;;18.48;31.59;94487.59;5048354;28;20155;-78
2022/04/16 07:03:45;;;;;;;16.00;6.53;;;;;;;18.40;32.39;94501.28;5067300;28;20171;-79
2022/04/16 07:06:10;;;;;;;10.10;6.23;;;;;;;18.60;32.48;94505.22;5068287;28;20174;-78
2022/04/16 07:08:53;;;;;;;6.77;5.90;;;;;;;17.81;33.00;94507.09;5074965;28;20179;-79
2022/04/16 07:14:52;;;;;;;11.07;6.20;;;;;;;18.95;31.44;94512.78;4972153;28;20413;-79
2022/04/16 07:17:20;;;;;;;9.07;7.00;;;;;;;18.26;32.70;94495.53;4988718;28;20473;-78
2022/04/16 07:19:46;;;;;;;7.00;6.20;;;;;;;18.04;33.42;94498.19;5028732;28;20190;-79
2022/04/16 07:22:11;;;;;;;8.30;6.80;;;;;;;18.47;32.63;94496.59;5065284;28;20442;-78
2022/04/16 07:24:38;;;;;;;8.60;6.73;;;;;;;18.49;32.79;94493.69;5069372;28;20178;-79
2022/04/16 07:27:05;;;;;;;9.67;7.00;;;;;;;18.92;32.47;94503.47;5069485;28;20376;-79
2022/04/16 07:29:30;;;;;;;6.97;6.37;;;;;;;19.13;32.08;94498.38;5086856;28;20480;-78
2022/04/16 07:32:11;;;;;;;10.27;6.20;;;;;;;18.55;33.31;94484.75;5071099;28;20445;-78
2022/04/16 07:34:37;;;;;;;10.17;7.33;;;;;;;19.02;32.72;94486.06;5082858;28;20177;-79
2022/04/16 07:37:03;;;;;;;7.03;6.40;;;;;;;19.27;32.24;94478.34;5080998;28;20428;-79
2022/04/16 07:39:28;;;;;;;9.20;7.23;;;;;;;18.85;32.04;94484.31;5068378;28;20170;-79
2022/04/16 07:41:54;;;;;;;16.90;7.37;;;;;;;19.18;32.40;94489.66;5067619;28;20202;-79
2022/04/16 07:44:19;;;;;;;10.60;6.83;;;;;;;19.44;31.67;94493.31;5069327;28;20175;-79
2022/04/16 07:46:46;;;;;;;9.17;7.03;;;;;;;19.24;32.23;94489.47;5069343;28;20178;-78
2022/04/16 07:49:11;;;;;;;6.17;5.57;;;;;;;18.76;32.31;94485.78;5067955;28;20162;-79
2022/04/16 07:51:37;;;;;;;9.80;7.57;;;;;;;19.45;31.84;94487.78;5068929;28;20412;-80
2022/04/16 07:54:02;;;;;;;9.03;7.27;;;;;;;19.35;32.47;94490.34;5069519;28;20238;-79
2022/04/16 07:56:28;;;;;;;6.80;5.73;;;;;;;19.35;32.05;94481.56;5067661;28;20257;-79
2022/04/16 07:58:54;;;;;;;7.10;6.37;;;;;;;19.10;32.70;94477.66;5067832;28;20206;-81
2022/04/16 08:01:20;;;;;;;8.77;5.73;;;;;;;19.29;32.06;94470.94;5059665;28;20167;-79
2022/04/16 08:03:45;;;;;;;5.67;5.00;;;;;;;19.05;32.65;94470.47;5067855;28;20183;-79
2022/04/16 08:06:11;;;;;;;6.50;5.93;;;;;;;18.89;33.13;94468.69;5066720;28;20563;-79
2022/04/16 08:08:42;;;;;;;9.50;6.40;;;;;;;18.77;33.16;94457.44;5060292;28;20178;-79
2022/04/16 08:11:11;;;;;;;8.87;5.63;;;;;;;18.90;33.35;94468.47;5055624;28;20179;-79
2022/04/16 08:13:37;;;;;;;8.53;7.13;;;;;;;19.69;32.64;94469.63;5062365;28;20433;-80
2022/04/16 08:16:03;;;;;;;10.50;6.33;;;;;;;19.05;32.98;94459.84;5059454;28;20742;-80
2022/04/16 08:18:28;;;;;;;9.47;6.07;;;;;;;19.61;32.41;94451.50;5071676;28;20210;-80
2022/04/16 08:20:54;;;;;;;8.80;6.50;;;;;;;19.15;33.09;94459.13;5067068;28;20167;-79
2022/04/16 08:23:19;;;;;;;7.40;6.70;;;;;;;19.82;32.15;94451.69;5061766;28;20206;-79
2022/04/16 08:25:44;;;;;;;6.40;5.63;;;;;;;19.51;32.00;94444.28;5060431;28;20248;-80
2022/04/16 08:28:10;;;;;;;6.17;5.57;;;;;;;19.26;32.72;94447.56;5063778;28;20182;-79
2022/04/16 08:30:35;;;;;;;10.70;4.70;;;;;;;19.74;32.21;94452.16;5065482;28;20210;-79
2022/04/16 08:33:01;;;;;;;8.00;6.30;;;;;;;19.63;31.89;94445.94;5061928;28;20210;-79
2022/04/16 08:35:27;;;;;;;12.30;6.00;;;;;;;20.30;31.45;94441.81;5060299;28;20181;-79
2022/04/16 08:37:52;;;;;;;9.07;5.70;;;;;;;20.12;31.68;94439.63;5064081;28;20577;-79
2022/04/16 08:40:19;;;;;;;9.33;6.10;;;;;;;20.18;31.27;94435.91;5058326;28;20261;-80
2022/04/16 08:43:01;;;;;;;7.47;5.80;;;;;;;20.83;30.44;94431.06;5059760;28;20189;-79
2022/04/16 08:45:30;;;;;;;8.10;5.77;;;;;;;20.40;30.83;94433.88;5052724;28;20458;-80
2022/04/16 08:47:56;;;;;;;5.97;5.27;;;;;;;21.04;30.07;94430.06;5058519;28;20443;-78
2022/04/16 08:50:22;;;;;;;5.33;4.80;;;;;;;20.82;30.46;94424.97;5059366;28;20444;-80
2022/04/16 08:52:48;;;;;;;7.87;6.00;;;;;;;21.47;29.63;94416.47;5062737;28;20784;-79
2022/04/16 08:55:14;;;;;;;13.43;6.77;;;;;;;22.12;29.11;94415.78;5064327;28;20185;-79
2022/04/16 08:57:48;;;;;;;6.10;4.77;;;;;;;22.26;26.82;94406.19;5051982;28;20466;-79
2022/04/16 09:00:14;;;;;;;7.17;4.70;;;;;;;22.46;27.08;94410.63;5054635;28;20197;-80
2022/04/16 09:02:57;;;;;;;6.67;4.70;;;;;;;22.98;25.90;94398.56;5057838;28;20438;-79
2022/04/16 09:05:24;;;;;;;12.73;5.87;;;;;;;22.40;27.93;94403.72;5058605;28;20414;-79
2022/04/16 09:07:52;;;;;;;9.13;5.90;;;;;;;23.22;26.15;94394.41;5056721;28;20497;-80
2022/04/16 09:10:19;;;;;;;5.73;5.13;;;;;;;23.27;26.63;94402.38;5053229;28;20420;-79
2022/04/16 09:12:50;;;;;;;6.57;5.03;;;;;;;22.64;26.99;94395.06;5055676;28;20441;-79
2022/04/16 09:15:16;;;;;;;8.50;5.00;;;;;;;22.15;27.70;94394.72;5047293;28;20399;-79
2022/04/16 09:17:42;;;;;;;5.43;4.93;;;;;;;23.58;25.51;94392.19;5062194;28;20468;-79
2022/04/16 09:20:12;;;;;;;8.13;5.77;;;;;;;24.34;24.77;94384.44;5065479;28;20238;-81
2022/04/16 09:22:40;;;;;;;6.40;5.17;;;;;;;24.30;24.50;94381.56;5063367;28;20429;-79
2022/04/16 09:25:19;;;;;;;6.00;5.40;;;;;;;24.37;24.50;94378.50;5060791;28;20487;-79
2022/04/16 09:27:50;;;;;;;15.53;5.30;;;;;;;23.77;25.37;94386.94;5066615;28;20424;-79
2022/04/16 09:30:23;;;;;;;5.17;4.67;;;;;;;23.57;25.28;94382.59;5063171;28;20457;-79
2022/04/16 09:32:55;;;;;;;6.03;5.30;;;;;;;23.49;25.71;94378.66;5062150;28;20450;-79
2022/04/16 09:35:35;;;;;;;5.40;4.97;;;;;;;24.49;24.46;94376.22;5064894;28;20523;-80
2022/04/16 09:38:06;;;;;;;9.07;5.90;;;;;;;25.20;23.90;94370.09;5065511;28;20460;-79
2022/04/16 09:40:33;;;;;;;5.93;4.40;;;;;;;25.44;23.47;94370.81;5060608;28;20482;-79
2022/04/16 09:43:01;;;;;;;5.57;4.93;;;;;;;24.02;24.97;94375.22;5065922;28;20433;-80
2022/04/16 09:45:30;;;;;;;5.90;5.40;;;;;;;24.06;24.42;94365.53;5067124;28;20405;-80
2022/04/16 09:47:57;;;;;;;5.50;5.00;;;;;;;23.72;25.08;94366.41;5065445;28;20410;-80
2022/04/16 09:50:25;;;;;;;6.67;5.30;;;;;;;24.81;24.44;94358.66;5066927;28;20423;-79
2022/04/16 09:53:05;;;;;;;7.57;4.63;;;;;;;24.81;24.30;94369.34;5065239;28;21042;-80
2022/04/16 09:55:31;;;;;;;5.50;5.03;;;;;;;25.47;23.44;94359.47;5066692;28;20454;-80
2022/04/16 09:58:01;;;;;;;6.80;5.57;;;;;;;25.30;23.59;94365.38;5069649;28;21029;-80
2022/04/16 10:00:27;;;;;;;7.27;5.10;;;;;;;25.13;23.92;94365.91;5059716;28;20423;-80
2022/04/16 10:02:54;;;;;;;8.93;4.80;;;;;;;25.08;23.84;94363.31;5066932;28;20455;-81
2022/04/16 10:05:24;;;;;;;5.57;5.07;;;;;;;26.01;22.99;94361.72;5067217;28;20435;-80
2022/04/16 10:07:52;;;;;;;5.97;5.00;;;;;;;26.87;22.27;94366.38;5065078;28;20445;-80
2022/04/16 10:10:25;;;;;;;10.33;6.00;;;;;;;26.40;22.29;94352.34;5071960;28;21413;-80
2022/04/16 10:13:04;;;;;;;7.07;5.17;;;;;;;24.65;24.43;94360.75;5063680;28;20430;-79
2022/04/16 10:15:57;;;;;;;6.80;5.20;;;;;;;24.87;23.91;94343.31;5059614;28;20414;-79
2022/04/16 10:18:24;;;;;;;6.43;5.20;;;;;;;24.62;24.42;94342.59;5064996;28;20514;-80
2022/04/16 10:20:53;;;;;;;7.77;5.37;;;;;;;24.04;25.14;94345.53;5058517;28;20430;-80
2022/04/16 10:23:32;;;;;;;7.23;6.30;;;;;;;24.38;24.41;94344.53;5065266;28;20914;-79
2022/04/16 10:26:12;;;;;;;8.13;6.20;;;;;;;24.70;24.07;94341.16;5055442;28;20416;-79
2022/04/16 10:28:54;;;;;;;7.43;5.50;;;;;;;25.23;23.48;94332.84;5066603;28;20489;-79
2022/04/16 10:31:29;;;;;;;7.07;5.27;;;;;;;25.10;23.54;94334.38;5056291;28;20424;-79
2022/04/16 10:34:03;;;;;;;8.27;5.57;;;;;;;25.62;23.22;94333.50;5061222;28;20434;-79
2022/04/16 10:36:37;;;;;;;5.53;5.00;;;;;;;25.09;23.93;94332.75;5065341;28;20420;-80
2022/04/16 10:39:25;;;;;;;7.77;6.43;;;;;;;25.60;23.46;94327.63;5064578;28;20564;-79
2022/04/16 10:42:03;;;;;;;5.97;5.37;;;;;;;26.02;23.08;94321.19;5056996;28;20959;-79
2022/04/16 10:44:31;;;;;;;5.83;5.23;;;;;;;25.51;23.42;94325.63;5061869;28;20420;-79
2022/04/16 10:46:58;;;;;;;5.77;5.23;;;;;;;26.17;22.85;94324.66;5063798;28;20996;-79
2022/04/16 10:49:29;;;;;;;8.70;4.83;;;;;;;26.65;22.09;94330.34;5062171;28;20425;-79
2022/04/16 10:51:55;;;;;;;6.63;5.80;;;;;;;26.78;21.89;94314.47;5050226;28;20468;-80
2022/04/16 10:54:32;;;;;;;7.23;4.87;;;;;;;26.98;21.98;94318.59;5053321;28;20421;-80
2022/04/16 10:56:57;;;;;;;6.53;5.10;;;;;;;27.07;21.91;94317.53;5061233;28;20428;-79
2022/04/16 10:59:43;;;;;;;5.70;5.23;;;;;;;26.75;22.50;94315.06;5064027;28;20477;-79
2022/04/16 11:02:22;;;;;;;9.33;7.17;;;;;;;25.64;23.40;94317.91;5060004;28;20175;-80
2022/04/16 11:05:11;;;;;;;5.87;5.37;;;;;;;26.30;22.20;94315.81;5054917;28;20426;-80
2022/04/16 11:07:39;;;;;;;8.80;6.27;;;;;;;27.17;21.35;94315.69;5063971;28;20433;-80
2022/04/16 11:10:12;;;;;;;5.37;4.83;;;;;;;26.39;22.16;94315.84;5064768;28;20437;-79
2022/04/16 11:12:38;;;;;;;7.43;6.40;;;;;;;26.70;22.26;94315.22;5059220;28;20436;-80
2022/04/16 11:15:24;;;;;;;8.17;5.67;;;;;;;27.01;21.88;94313.38;5059779;28;20428;-80
2022/04/16 11:17:57;;;;;;;5.73;5.23;;;;;;;27.59;21.42;94310.88;5081854;28;20469;-80
2022/04/16 11:20:25;;;;;;;6.30;5.10;;;;;;;25.23;23.84;94297.22;5054247;28;20445;-79
2022/04/16 11:22:51;;;;;;;7.53;5.90;;;;;;;26.09;23.02;94304.72;5056820;28;20441;-80
2022/04/16 11:25:21;;;;;;;7.23;6.53;;;;;;;27.18;21.75;94303.84;5058574;28;20579;-79
2022/04/16 11:36:09;;;;;;;5.70;5.20;;;;;;;27.20;21.50;94293.56;5051351;28;20891;-80
2022/04/16 11:38:36;;;;;;;7.83;5.30;;;;;;;26.53;22.03;94292.47;5057424;28;20469;-80
2022/04/16 11:41:07;;;;;;;6.30;5.60;;;;;;;26.66;22.64;94277.44;5049047;28;20432;-80
2022/04/16 11:43:34;;;;;;;7.50;5.87;;;;;;;25.61;23.18;94279.09;5071155;28;20964;-79
2022/04/16 11:46:03;;;;;;;5.33;4.93;;;;;;;25.17;23.97;94280.41;5059104;28;20977;-80
2022/04/16 11:48:31;;;;;;;6.07;5.47;;;;;;;25.58;23.57;94270.88;5064100;28;20441;-80
2022/04/16 11:51:39;;;;;;;5.57;5.07;;;;;;;26.11;23.33;94275.69;5086714;28;20917;-79
2022/04/16 11:54:05;;;;;;;9.47;4.93;;;;;;;26.79;22.54;94265.06;5086560;28;20440;-80
2022/04/16 11:56:30;;;;;;;6.50;5.50;;;;;;;26.61;22.77;94267.59;5067907;28;20513;-80
2022/04/16 11:59:00;;;;;;;6.70;6.10;;;;;;;26.64;22.77;94261.63;5088654;28;20459;-80
2022/04/16 12:01:26;;;;;;;6.73;5.97;;;;;;;26.61;22.36;94256.88;5096683;28;20161;-80
2022/04/16 12:04:08;;;;;;;6.37;4.80;;;;;;;25.74;23.26;94249.91;5097499;28;20423;-81
2022/04/16 12:06:35;;;;;;;6.00;4.57;;;;;;;26.10;23.06;94253.44;5099776;28;20951;-81
2022/04/16 12:09:01;;;;;;;5.07;4.57;;;;;;;26.17;23.18;94242.28;5096703;28;20487;-80
2022/04/16 12:11:27;;;;;;;5.10;4.60;;;;;;;26.82;22.28;94249.09;5090589;28;20430;-81
2022/04/16 12:13:54;;;;;;;6.13;5.50;;;;;;;26.05;23.13;94242.03;5087944;28;20424;-81
2022/04/16 12:16:20;;;;;;;6.87;5.27;;;;;;;26.32;22.94;94249.22;5069809;28;20167;-81
2022/04/16 12:18:46;;;;;;;7.07;5.17;;;;;;;25.65;23.82;94245.25;5067965;28;20500;-81
2022/04/16 12:21:16;;;;;;;5.53;5.13;;;;;;;26.22;22.59;94234.13;5069660;28;20839;-81
2022/04/16 12:23:44;;;;;;;6.57;4.87;;;;;;;26.00;23.40;94242.94;5068785;28;20441;-80
2022/04/16 12:26:14;;;;;;;6.20;4.70;;;;;;;26.38;22.73;94234.56;5069229;28;20412;-81
2022/04/16 12:28:51;;;;;;;6.07;4.90;;;;;;;26.61;22.24;94235.38;5069461;28;20384;-81
2022/04/16 12:31:29;;;;;;;7.20;5.40;;;;;;;26.70;22.48;94226.63;5069718;28;20400;-80
2022/04/16 12:34:14;;;;;;;5.23;4.70;;;;;;;26.45;22.42;94228.78;5071279;28;20528;-80
2022/04/16 12:36:39;;;;;;;6.80;5.17;;;;;;;26.03;23.18;94230.81;5070849;28;20947;-80
2022/04/16 12:39:04;;;;;;;5.63;4.97;;;;;;;26.14;23.36;94224.09;5068536;28;20564;-80
2022/04/16 12:41:30;;;;;;;4.90;4.47;;;;;;;26.11;23.21;94227.41;5068883;28;20231;-81